CheckWX is a tool to help pilots better visualize weather data.  It is not intended as a substitute for an official pre-flight weather briefing.

12:53:59 UTC

KEFD TAF
Ellington Airport
Houston, Texas, USA
TAF KEFD 201200Z 2012/2118 13009KT 9999 SCT008 SCT021 QNH2989INS BECMG 2014/2015 14015G25KT 9999 SCT020 BKN030 QNH2980INS BECMG 2023/2024 14015G30KT 9999 OVC010 QNH2974INS BECMG 2102/2103 15010G15KT 9999 BKN010 OVC020 QNH2968INS BECMG 2114/2115 16015G30KT 9999 BKN030 QNH2972INS TX31/2021Z TN24/2012Z

May-20@
12:00 UTC

May-20 @ 12:00 UTC

May-20@
14:00 UTC

May-20 @ 14:00 UTC

TAF KEFD 201200Z 2012/2118 13009KT 9999 SCT008 SCT021 QNH2989INS
Wind
  • 130° at 9 KTS
Cloud Levels
  • Scattered at 800' AGL
  • Scattered at 2,100' AGL

May-20@
14:00 UTC

May-20 @ 14:00 UTC

May-20@
23:00 UTC

May-20 @ 23:00 UTC

BECMG 2014/2015 14015G25KT 9999 SCT020 BKN030 QNH2980INS

Becoming

Becoming Conditions expected by Mon, May 20, 2019 @ 15:00 UTC

Wind
  • 140° at 15 KTS
  • {Gusting to 25 KTS
Cloud Levels
  • Scattered at 2,000' AGL
  • Broken at 3,000' AGL

May-20@
23:00 UTC

May-20 @ 23:00 UTC

May-21@
02:00 UTC

May-21 @ 02:00 UTC

BECMG 2023/2024 14015G30KT 9999 OVC010 QNH2974INS

Becoming

Becoming Conditions expected by Tue, May 21, 2019 @ 00:00 UTC

Wind
  • 140° at 15 KTS
  • {Gusting to 30 KTS
Cloud Levels
  • Overcast at 1,000' AGL

May-21@
02:00 UTC

May-21 @ 02:00 UTC

May-21@
14:00 UTC

May-21 @ 14:00 UTC

BECMG 2102/2103 15010G15KT 9999 BKN010 OVC020 QNH2968INS

Becoming

Becoming Conditions expected by Tue, May 21, 2019 @ 03:00 UTC

Wind
  • 150° at 10 KTS
  • {Gusting to 15 KTS
Cloud Levels
  • Broken at 1,000' AGL
  • Overcast at 2,000' AGL

May-21@
14:00 UTC

May-21 @ 14:00 UTC

May-21@
18:00 UTC

May-21 @ 18:00 UTC

BECMG 2114/2115 16015G30KT 9999 BKN030 QNH2972INS TX31/2021Z TN24/2012Z

Becoming

Becoming Conditions expected by Tue, May 21, 2019 @ 15:00 UTC

Wind
  • 160° at 15 KTS
  • {Gusting to 30 KTS
Cloud Levels
  • Broken at 3,000' AGL